Time;durP1;ratioP1;P1;durP2;ratioP2;P2;SDS_P1;SDS_P2;PMS_P1;PMS_P2;Temp;Humidity;BMP_temperature;BMP_pressure;BME280_temperature;BME280_humidity;BME280_pressure;Samples;Min_cycle;Max_cycle;Signal;HPM_P1;HPM_P2
2022/01/31 00:01:35;;;;;;;66.78;7.60;;;;;;;;;;5054607;28;20293;-70
2022/01/31 00:04:02;;;;;;;89.65;12.88;;;;;;;;;;5054166;28;20280;-69
2022/01/31 00:06:30;;;;;;;73.55;8.98;;;;;;;;;;5054278;28;20210;-69
2022/01/31 00:08:57;;;;;;;80.85;9.63;;;;;;;;;;5054121;28;20222;-69
2022/01/31 00:11:24;;;;;;;87.97;10.05;;;;;;;;;;5054322;28;20216;-70
2022/01/31 00:13:59;;;;;;;73.90;9.45;;;;;;;;;;5054154;28;20718;-70
2022/01/31 00:16:32;;;;;;;65.80;8.82;;;;;;;;;;5054096;28;20209;-70
2022/01/31 00:19:01;;;;;;;71.00;9.50;;;;;;;;;;5054042;28;20264;-70
2022/01/31 00:21:28;;;;;;;68.80;7.65;;;;;;;;;;5053928;28;20604;-70
2022/01/31 00:23:55;;;;;;;67.63;7.10;;;;;;;;;;5053944;28;20236;-70
2022/01/31 00:26:22;;;;;;;65.45;7.05;;;;;;;;;;5053888;28;20579;-70
2022/01/31 00:28:49;;;;;;;64.72;7.57;;;;;;;;;;5053493;28;20225;-70
2022/01/31 00:31:16;;;;;;;64.82;7.63;;;;;;;;;;5053889;28;20293;-70
2022/01/31 00:33:44;;;;;;;68.90;6.95;;;;;;;;;;5053801;28;20313;-70
2022/01/31 00:36:12;;;;;;;64.15;7.65;;;;;;;;;;5051806;28;20224;-70
2022/01/31 00:38:39;;;;;;;67.10;8.45;;;;;;;;;;5053492;28;20213;-70
2022/01/31 00:41:06;;;;;;;69.88;8.30;;;;;;;;;;5053563;28;20210;-70
2022/01/31 00:43:36;;;;;;;67.78;7.20;;;;;;;;;;5053266;28;20258;-70
2022/01/31 00:46:10;;;;;;;68.80;7.50;;;;;;;;;;5053364;28;20206;-70
2022/01/31 00:48:42;;;;;;;76.20;7.07;;;;;;;;;;5053298;28;20225;-70
2022/01/31 00:51:09;;;;;;;64.43;7.40;;;;;;;;;;5053586;28;20210;-70
2022/01/31 00:53:39;;;;;;;68.80;7.10;;;;;;;;;;5053277;28;20230;-70
2022/01/31 00:56:07;;;;;;;64.35;7.50;;;;;;;;;;5053117;28;20206;-70
2022/01/31 00:58:34;;;;;;;64.97;8.18;;;;;;;;;;5053075;28;20214;-70
2022/01/31 01:01:01;;;;;;;70.80;9.02;;;;;;;;;;5053360;28;20588;-70
2022/01/31 01:03:28;;;;;;;68.82;8.10;;;;;;;;;;5053376;28;20225;-69
2022/01/31 01:05:56;;;;;;;66.50;8.38;;;;;;;;;;5053316;28;20301;-70
2022/01/31 01:08:23;;;;;;;66.28;8.32;;;;;;;;;;5061570;28;20230;-70
2022/01/31 01:10:51;;;;;;;67.82;8.55;;;;;;;;;;5072818;28;20296;-70
2022/01/31 01:13:18;;;;;;;68.00;7.60;;;;;;;;;;5072762;28;20227;-69
2022/01/31 01:15:45;;;;;;;69.55;7.68;;;;;;;;;;5073137;28;20301;-70
2022/01/31 01:18:12;;;;;;;69.22;8.23;;;;;;;;;;5072603;28;20217;-70
2022/01/31 01:20:40;;;;;;;79.07;7.55;;;;;;;;;;5072747;28;20237;-70
2022/01/31 01:23:07;;;;;;;66.80;7.85;;;;;;;;;;5072519;28;20236;-70
2022/01/31 01:25:34;;;;;;;65.95;8.10;;;;;;;;;;5072575;28;20689;-70
2022/01/31 01:28:02;;;;;;;65.55;7.60;;;;;;;;;;5072139;28;20225;-70
2022/01/31 01:30:30;;;;;;;68.03;9.25;;;;;;;;;;5072638;28;20753;-70
2022/01/31 01:33:06;;;;;;;74.75;8.57;;;;;;;;;;5072590;28;20222;-70
2022/01/31 01:35:34;;;;;;;66.15;7.85;;;;;;;;;;5072547;28;20225;-70
2022/01/31 01:38:06;;;;;;;64.55;7.60;;;;;;;;;;5072000;28;20304;-70
2022/01/31 01:40:33;;;;;;;67.63;7.70;;;;;;;;;;5054478;28;20740;-70
2022/01/31 01:43:03;;;;;;;64.57;8.38;;;;;;;;;;5052203;28;20222;-71
2022/01/31 01:45:30;;;;;;;71.18;9.15;;;;;;;;;;5052359;28;20687;-70
2022/01/31 01:47:57;;;;;;;67.32;9.10;;;;;;;;;;5052066;28;20597;-70
2022/01/31 01:50:25;;;;;;;67.70;7.78;;;;;;;;;;5052116;28;20609;-70
2022/01/31 01:52:53;;;;;;;68.80;8.00;;;;;;;;;;5052318;28;20226;-70
2022/01/31 01:55:20;;;;;;;71.30;8.23;;;;;;;;;;5052360;28;20297;-70
2022/01/31 01:57:47;;;;;;;66.05;8.23;;;;;;;;;;5051575;28;20641;-70
2022/01/31 02:00:24;;;;;;;65.25;8.07;;;;;;;;;;5052110;28;20294;-71
2022/01/31 02:02:51;;;;;;;67.97;7.28;;;;;;;;;;5052211;28;20720;-71
2022/01/31 02:05:18;;;;;;;68.22;9.18;;;;;;;;;;5052168;28;20212;-70
2022/01/31 02:07:45;;;;;;;64.53;6.85;;;;;;;;;;5051848;28;20626;-69
2022/01/31 02:10:13;;;;;;;64.07;6.88;;;;;;;;;;5051324;28;20233;-68
2022/01/31 02:12:40;;;;;;;66.50;7.70;;;;;;;;;;5051659;28;20232;-69
2022/01/31 02:15:08;;;;;;;75.28;9.75;;;;;;;;;;5051951;28;20206;-69
2022/01/31 02:17:37;;;;;;;72.30;9.23;;;;;;;;;;5051475;28;20293;-69
2022/01/31 02:20:05;;;;;;;71.30;7.63;;;;;;;;;;5052021;28;20740;-69
2022/01/31 02:22:34;;;;;;;65.55;6.75;;;;;;;;;;5051421;28;20232;-69
2022/01/31 02:25:02;;;;;;;71.25;7.93;;;;;;;;;;5051968;28;20210;-69
2022/01/31 02:27:29;;;;;;;71.75;7.60;;;;;;;;;;5051484;28;20275;-69
2022/01/31 02:29:57;;;;;;;63.65;6.57;;;;;;;;;;5051493;28;20218;-69
2022/01/31 02:32:24;;;;;;;64.90;7.00;;;;;;;;;;5051723;28;20650;-69
2022/01/31 02:34:51;;;;;;;66.75;8.63;;;;;;;;;;5051750;28;20297;-69
2022/01/31 02:37:24;;;;;;;72.32;8.55;;;;;;;;;;5051488;28;20314;-69
2022/01/31 02:39:53;;;;;;;72.35;8.60;;;;;;;;;;5070619;28;20229;-69
2022/01/31 02:42:20;;;;;;;66.97;7.30;;;;;;;;;;5069027;28;20212;-70
2022/01/31 02:44:48;;;;;;;82.13;6.25;;;;;;;;;;5071681;28;20217;-70
2022/01/31 02:47:19;;;;;;;66.15;5.85;;;;;;;;;;5071322;28;20209;-70
2022/01/31 02:49:51;;;;;;;66.30;6.10;;;;;;;;;;5071823;28;20648;-68
2022/01/31 02:52:18;;;;;;;69.50;6.53;;;;;;;;;;5071325;28;20286;-70
2022/01/31 02:54:46;;;;;;;67.95;5.82;;;;;;;;;;5071886;28;20213;-70
2022/01/31 02:57:14;;;;;;;68.45;6.03;;;;;;;;;;5071365;28;20580;-70
2022/01/31 02:59:42;;;;;;;65.45;6.70;;;;;;;;;;5071583;28;20212;-70
2022/01/31 03:02:09;;;;;;;70.68;6.25;;;;;;;;;;5071418;28;20213;-70
2022/01/31 03:04:36;;;;;;;64.72;6.40;;;;;;;;;;5071278;28;20297;-70
2022/01/31 03:07:03;;;;;;;64.90;5.43;;;;;;;;;;5071702;28;20209;-70
2022/01/31 03:09:31;;;;;;;63.75;6.35;;;;;;;;;;5073220;28;20597;-70
2022/01/31 03:11:58;;;;;;;67.78;6.43;;;;;;;;;;5075241;28;20205;-70
2022/01/31 03:14:26;;;;;;;61.55;5.40;;;;;;;;;;5063289;28;20234;-70
2022/01/31 03:16:54;;;;;;;69.72;6.90;;;;;;;;;;5055420;28;20635;-70
2022/01/31 03:19:21;;;;;;;68.80;5.80;;;;;;;;;;5054967;28;20203;-69
2022/01/31 03:21:48;;;;;;;62.95;5.20;;;;;;;;;;5055807;28;20210;-70
2022/01/31 03:24:16;;;;;;;64.40;5.95;;;;;;;;;;5055226;28;20241;-69
2022/01/31 03:26:43;;;;;;;63.17;6.07;;;;;;;;;;5055754;28;20206;-70
2022/01/31 03:29:10;;;;;;;65.32;5.32;;;;;;;;;;5055202;28;20545;-70
2022/01/31 03:31:38;;;;;;;63.92;5.85;;;;;;;;;;5055782;28;20702;-70
2022/01/31 03:34:06;;;;;;;64.82;6.03;;;;;;;;;;5055354;28;20226;-69
2022/01/31 03:36:33;;;;;;;63.97;5.70;;;;;;;;;;5055239;28;20597;-70
2022/01/31 03:39:00;;;;;;;65.75;5.75;;;;;;;;;;5054663;28;20205;-70
2022/01/31 03:41:27;;;;;;;70.82;6.97;;;;;;;;;;5054822;28;20583;-70
2022/01/31 03:43:54;;;;;;;67.00;5.13;;;;;;;;;;5054217;28;20800;-70
2022/01/31 03:46:22;;;;;;;65.53;5.85;;;;;;;;;;5053392;28;20681;-72
2022/01/31 03:48:51;;;;;;;67.18;5.70;;;;;;;;;;5054742;28;20268;-69
2022/01/31 03:51:19;;;;;;;67.13;4.93;;;;;;;;;;5054685;28;20213;-69
2022/01/31 03:53:46;;;;;;;61.08;4.85;;;;;;;;;;5054575;28;20234;-70
2022/01/31 03:56:14;;;;;;;59.85;4.63;;;;;;;;;;5054471;28;20589;-71
2022/01/31 03:58:41;;;;;;;68.63;6.57;;;;;;;;;;5054082;28;20207;-69
2022/01/31 04:01:08;;;;;;;62.63;5.00;;;;;;;;;;5054557;28;20305;-69
2022/01/31 04:03:36;;;;;;;62.72;5.55;;;;;;;;;;5054894;28;20222;-70
2022/01/31 04:06:04;;;;;;;73.40;7.25;;;;;;;;;;5054542;28;20221;-70
2022/01/31 04:08:31;;;;;;;61.20;5.00;;;;;;;;;;5053996;28;20207;-70
2022/01/31 04:10:59;;;;;;;62.67;5.32;;;;;;;;;;5054197;28;20209;-70
2022/01/31 04:13:26;;;;;;;69.75;5.80;;;;;;;;;;5053832;28;20233;-70
2022/01/31 04:15:53;;;;;;;64.28;5.55;;;;;;;;;;5054156;28;20209;-70
2022/01/31 04:18:20;;;;;;;69.10;5.75;;;;;;;;;;5053031;28;20750;-70
2022/01/31 04:20:48;;;;;;;63.53;5.65;;;;;;;;;;5053772;28;20304;-70
2022/01/31 04:23:19;;;;;;;64.63;5.25;;;;;;;;;;5053734;28;20222;-70
2022/01/31 04:25:52;;;;;;;72.93;5.82;;;;;;;;;;5054111;28;20698;-70
2022/01/31 04:28:23;;;;;;;67.00;6.40;;;;;;;;;;5053602;28;20210;-70
2022/01/31 04:30:55;;;;;;;63.20;5.30;;;;;;;;;;5053950;28;20226;-70
2022/01/31 04:33:23;;;;;;;61.13;5.38;;;;;;;;;;5053844;28;20707;-70
2022/01/31 04:35:50;;;;;;;64.80;5.45;;;;;;;;;;5053890;28;20221;-70
2022/01/31 04:38:19;;;;;;;70.40;5.85;;;;;;;;;;5053458;28;20577;-70
2022/01/31 04:40:46;;;;;;;63.17;5.38;;;;;;;;;;5053599;28;20269;-70
2022/01/31 04:43:13;;;;;;;65.97;5.45;;;;;;;;;;5053466;28;20230;-70
2022/01/31 04:45:47;;;;;;;63.78;6.00;;;;;;;;;;5053697;28;20582;-70
2022/01/31 04:48:15;;;;;;;63.20;4.82;;;;;;;;;;5054627;28;20206;-70
2022/01/31 04:50:42;;;;;;;64.10;5.40;;;;;;;;;;5073391;28;20230;-70
2022/01/31 04:53:09;;;;;;;61.55;5.10;;;;;;;;;;5073269;28;20228;-70
2022/01/31 04:55:38;;;;;;;60.95;4.50;;;;;;;;;;5088745;28;20205;-70
2022/01/31 04:58:06;;;;;;;61.00;4.75;;;;;;;;;;5090918;28;20296;-70
2022/01/31 05:00:33;;;;;;;69.22;4.80;;;;;;;;;;5092317;28;20592;-71
2022/01/31 05:03:00;;;;;;;64.38;5.00;;;;;;;;;;5090326;28;20289;-70
2022/01/31 05:05:28;;;;;;;66.93;6.30;;;;;;;;;;5089611;28;20208;-70
2022/01/31 05:07:55;;;;;;;63.17;4.85;;;;;;;;;;5092566;28;20661;-70
2022/01/31 05:10:22;;;;;;;65.65;5.63;;;;;;;;;;5095642;28;20213;-70
2022/01/31 05:12:51;;;;;;;64.38;5.60;;;;;;;;;;5086719;28;20286;-70
2022/01/31 05:15:18;;;;;;;61.30;5.45;;;;;;;;;;5087079;28;20232;-70
2022/01/31 05:17:45;;;;;;;63.13;5.03;;;;;;;;;;5092901;28;20240;-70
2022/01/31 05:20:13;;;;;;;64.85;4.60;;;;;;;;;;5091858;28;20203;-70
2022/01/31 05:22:40;;;;;;;61.90;4.97;;;;;;;;;;5094202;28;20290;-71
2022/01/31 05:25:07;;;;;;;61.60;4.78;;;;;;;;;;5093299;28;20226;-71
2022/01/31 05:27:34;;;;;;;61.60;4.85;;;;;;;;;;5089515;28;20718;-70
2022/01/31 05:30:03;;;;;;;61.90;5.07;;;;;;;;;;5073082;28;20232;-70
2022/01/31 05:32:30;;;;;;;67.05;4.78;;;;;;;;;;5071838;28;20230;-70
2022/01/31 05:35:00;;;;;;;61.33;5.13;;;;;;;;;;5072882;28;20228;-70
2022/01/31 05:37:28;;;;;;;64.03;5.10;;;;;;;;;;5072484;28;20259;-69
2022/01/31 05:39:55;;;;;;;68.18;5.15;;;;;;;;;;5072556;28;20205;-71
2022/01/31 05:42:22;;;;;;;61.67;5.10;;;;;;;;;;5072644;28;20202;-70
2022/01/31 05:44:49;;;;;;;63.45;5.40;;;;;;;;;;5072904;28;20202;-70
2022/01/31 05:47:18;;;;;;;60.90;5.20;;;;;;;;;;5071825;28;20241;-70
2022/01/31 05:49:45;;;;;;;63.90;5.57;;;;;;;;;;5072032;28;20237;-70
2022/01/31 05:52:12;;;;;;;66.57;5.72;;;;;;;;;;5070327;28;20213;-70
2022/01/31 05:54:40;;;;;;;63.50;4.95;;;;;;;;;;5072562;28;20202;-70
2022/01/31 05:57:08;;;;;;;68.30;6.18;;;;;;;;;;5072320;28;20208;-70
2022/01/31 05:59:35;;;;;;;60.25;5.30;;;;;;;;;;5072131;28;20297;-69
2022/01/31 06:02:02;;;;;;;62.30;5.15;;;;;;;;;;5072769;28;20296;-70
2022/01/31 06:04:31;;;;;;;61.85;5.45;;;;;;;;;;5072088;28;20229;-70
2022/01/31 06:06:58;;;;;;;63.90;5.38;;;;;;;;;;5072480;28;20210;-70
2022/01/31 06:09:26;;;;;;;61.88;4.93;;;;;;;;;;5071974;28;20213;-70
2022/01/31 06:11:53;;;;;;;62.97;4.97;;;;;;;;;;5072377;28;20234;-70
2022/01/31 06:14:21;;;;;;;71.68;6.35;;;;;;;;;;5071749;28;20316;-70
2022/01/31 06:16:48;;;;;;;60.15;5.20;;;;;;;;;;5072663;28;20215;-71
2022/01/31 06:19:15;;;;;;;66.38;5.38;;;;;;;;;;5072205;28;20583;-70
2022/01/31 06:21:44;;;;;;;60.53;4.85;;;;;;;;;;5071990;28;20215;-68
2022/01/31 06:24:13;;;;;;;61.35;4.45;;;;;;;;;;5057145;28;20670;-72
2022/01/31 06:26:40;;;;;;;68.20;5.88;;;;;;;;;;5052092;28;20682;-68
2022/01/31 06:29:07;;;;;;;65.18;5.72;;;;;;;;;;5051882;28;20699;-69
2022/01/31 06:31:35;;;;;;;65.78;4.85;;;;;;;;;;5052045;28;20228;-69
2022/01/31 06:34:02;;;;;;;62.70;5.35;;;;;;;;;;5052138;28;20421;-71
2022/01/31 06:36:30;;;;;;;64.40;5.13;;;;;;;;;;5051834;28;20245;-71
2022/01/31 06:38:58;;;;;;;65.40;4.85;;;;;;;;;;5051549;28;20305;-71
2022/01/31 06:41:26;;;;;;;63.17;6.25;;;;;;;;;;5051699;28;20302;-70
2022/01/31 06:43:54;;;;;;;67.47;6.00;;;;;;;;;;5056038;28;20233;-70
2022/01/31 06:46:21;;;;;;;61.00;5.25;;;;;;;;;;5058100;28;20304;-71
2022/01/31 06:48:48;;;;;;;70.18;5.07;;;;;;;;;;5058426;28;20206;-70
2022/01/31 06:51:15;;;;;;;65.05;5.47;;;;;;;;;;5058333;28;20221;-70
2022/01/31 06:53:42;;;;;;;64.75;6.47;;;;;;;;;;5057778;28;20718;-71
2022/01/31 06:56:11;;;;;;;63.75;4.63;;;;;;;;;;5057426;28;20300;-71
2022/01/31 06:58:38;;;;;;;60.97;5.95;;;;;;;;;;5058102;28;20294;-70
2022/01/31 07:01:05;;;;;;;73.22;6.28;;;;;;;;;;5058484;28;20202;-71
2022/01/31 07:03:36;;;;;;;63.70;5.78;;;;;;;;;;5058167;28;20605;-71
2022/01/31 07:06:03;;;;;;;65.35;4.40;;;;;;;;;;5057799;28;20211;-71
2022/01/31 07:08:30;;;;;;;60.25;5.50;;;;;;;;;;5057680;28;20313;-70
2022/01/31 07:10:57;;;;;;;70.38;6.35;;;;;;;;;;5058389;28;20257;-71
2022/01/31 07:13:37;;;;;;;61.67;5.13;;;;;;;;;;5057918;28;20229;-70
2022/01/31 07:16:05;;;;;;;64.53;5.32;;;;;;;;;;5058096;28;20206;-70
2022/01/31 07:18:33;;;;;;;63.88;5.80;;;;;;;;;;5058045;28;20212;-70
2022/01/31 07:21:01;;;;;;;62.70;5.35;;;;;;;;;;5057832;28;20225;-70
2022/01/31 07:23:38;;;;;;;61.85;5.45;;;;;;;;;;5057834;28;20233;-70
2022/01/31 07:26:05;;;;;;;61.55;5.50;;;;;;;;;;5056608;28;20202;-70
2022/01/31 07:28:34;;;;;;;64.90;6.38;;;;;;;;;;5057777;28;20217;-70
2022/01/31 07:31:01;;;;;;;65.93;5.60;;;;;;;;;;5057790;28;20222;-69
2022/01/31 07:33:28;;;;;;;60.92;5.00;;;;;;;;;;5058094;28;20225;-70
2022/01/31 07:35:55;;;;;;;61.65;5.43;;;;;;;;;;5057731;28;20214;-70
2022/01/31 07:38:23;;;;;;;68.72;5.93;;;;;;;;;;5057909;28;20206;-70
2022/01/31 07:40:51;;;;;;;69.57;6.45;;;;;;;;;;5057853;28;20214;-70
2022/01/31 07:43:18;;;;;;;64.13;6.38;;;;;;;;;;5057456;28;20230;-71
2022/01/31 07:45:47;;;;;;;75.05;5.53;;;;;;;;;;5057808;28;20210;-71
2022/01/31 07:48:14;;;;;;;66.20;5.90;;;;;;;;;;5057733;28;20210;-70
2022/01/31 07:50:41;;;;;;;63.40;6.10;;;;;;;;;;5057774;28;20248;-69
2022/01/31 07:53:09;;;;;;;69.38;5.68;;;;;;;;;;5057733;28;20665;-70
2022/01/31 07:55:37;;;;;;;61.25;5.18;;;;;;;;;;5054653;28;20210;-71
2022/01/31 07:58:04;;;;;;;63.28;6.10;;;;;;;;;;5053062;28;20622;-70
2022/01/31 08:00:31;;;;;;;61.45;5.78;;;;;;;;;;5054643;28;20241;-71
2022/01/31 08:03:00;;;;;;;64.45;4.30;;;;;;;;;;5055189;28;20221;-71
2022/01/31 08:05:28;;;;;;;66.13;5.50;;;;;;;;;;5054688;28;20206;-70
2022/01/31 08:07:55;;;;;;;62.20;5.38;;;;;;;;;;5053990;28;20206;-71
2022/01/31 08:10:22;;;;;;;62.92;4.90;;;;;;;;;;5054244;28;20245;-71
2022/01/31 08:12:49;;;;;;;66.20;4.65;;;;;;;;;;5054234;28;20222;-71
2022/01/31 08:15:24;;;;;;;60.17;4.40;;;;;;;;;;5054259;28;20305;-71
2022/01/31 08:17:51;;;;;;;60.53;4.13;;;;;;;;;;5053886;28;20206;-71
2022/01/31 08:20:20;;;;;;;58.60;3.17;;;;;;;;;;5054075;28;20686;-70
2022/01/31 08:22:47;;;;;;;58.17;3.78;;;;;;;;;;5054118;28;20248;-70
2022/01/31 08:25:15;;;;;;;58.25;3.42;;;;;;;;;;5054187;28;20293;-70
2022/01/31 08:27:45;;;;;;;58.95;3.00;;;;;;;;;;5053561;28;20219;-70
2022/01/31 08:30:18;;;;;;;58.67;3.20;;;;;;;;;;5052724;28;20586;-70
2022/01/31 08:32:57;;;;;;;58.30;2.90;;;;;;;;;;5053987;28;20605;-70
2022/01/31 08:38:10;;;;;;;58.90;3.30;;;;;;;;;;5053444;28;20606;-70
2022/01/31 08:40:38;;;;;;;61.33;3.00;;;;;;;;;;5053920;28;20293;-70
2022/01/31 08:43:05;;;;;;;58.17;3.25;;;;;;;;;;5053695;28;20313;-70
2022/01/31 08:45:33;;;;;;;60.60;3.45;;;;;;;;;;5053757;28;20218;-70
2022/01/31 08:48:00;;;;;;;58.95;2.97;;;;;;;;;;5053432;28;20291;-70
2022/01/31 08:50:29;;;;;;;59.95;3.20;;;;;;;;;;5053384;28;20598;-70
2022/01/31 08:52:56;;;;;;;58.42;3.33;;;;;;;;;;5053800;28;20232;-70
2022/01/31 08:55:24;;;;;;;58.60;2.90;;;;;;;;;;5053403;28;20696;-69
2022/01/31 08:57:54;;;;;;;58.47;3.20;;;;;;;;;;5053382;28;20206;-70
2022/01/31 09:00:21;;;;;;;58.17;2.80;;;;;;;;;;5053443;28;20617;-69
2022/01/31 09:03:01;;;;;;;58.20;2.65;;;;;;;;;;5067967;28;20647;-70
2022/01/31 09:05:29;;;;;;;58.63;3.58;;;;;;;;;;5073796;28;20205;-73
2022/01/31 09:07:56;;;;;;;58.28;3.30;;;;;;;;;;5071893;28;20227;-69
2022/01/31 09:10:23;;;;;;;58.47;2.90;;;;;;;;;;5073693;28;20208;-69
2022/01/31 09:12:51;;;;;;;58.47;3.20;;;;;;;;;;5073004;28;20668;-70
2022/01/31 09:15:18;;;;;;;58.88;3.33;;;;;;;;;;5073096;28;20209;-70
2022/01/31 09:17:45;;;;;;;59.55;3.75;;;;;;;;;;5072447;28;20205;-70
2022/01/31 09:20:12;;;;;;;59.05;3.10;;;;;;;;;;5073197;28;20284;-70
2022/01/31 09:22:43;;;;;;;57.90;3.08;;;;;;;;;;5072821;28;20233;-71
2022/01/31 09:25:10;;;;;;;66.72;3.20;;;;;;;;;;5072761;28;20213;-71
2022/01/31 09:27:37;;;;;;;58.78;3.50;;;;;;;;;;5072473;28;20648;-71
2022/01/31 09:30:05;;;;;;;58.90;3.38;;;;;;;;;;5072566;28;20693;-69
2022/01/31 09:32:33;;;;;;;59.30;3.67;;;;;;;;;;5072397;28;20229;-69
2022/01/31 09:35:00;;;;;;;59.42;3.45;;;;;;;;;;5070564;28;20224;-69
2022/01/31 09:37:27;;;;;;;64.07;3.70;;;;;;;;;;5072455;28;20231;-70
2022/01/31 09:40:02;;;;;;;60.15;3.03;;;;;;;;;;5072598;28;20653;-69
2022/01/31 09:42:35;;;;;;;60.05;3.60;;;;;;;;;;5072354;28;20729;-70
2022/01/31 09:45:17;;;;;;;58.58;3.35;;;;;;;;;;5072509;28;20300;-71
2022/01/31 09:50:30;;;;;;;58.88;3.05;;;;;;;;;;5072388;28;20200;-71
2022/01/31 09:52:58;;;;;;;59.97;3.83;;;;;;;;;;5072203;28;20225;-71
2022/01/31 09:55:27;;;;;;;59.40;3.42;;;;;;;;;;5072506;28;20206;-71
2022/01/31 09:57:54;;;;;;;60.78;3.00;;;;;;;;;;5072195;28;20463;-71
2022/01/31 10:00:31;;;;;;;59.33;3.63;;;;;;;;;;5072404;28;20296;-70
2022/01/31 10:03:08;;;;;;;62.10;3.60;;;;;;;;;;5072532;28;20732;-71
2022/01/31 10:05:36;;;;;;;60.55;4.00;;;;;;;;;;5068229;28;20657;-71
2022/01/31 10:08:10;;;;;;;58.00;2.92;;;;;;;;;;5071516;28;20215;-71
2022/01/31 10:10:42;;;;;;;62.33;3.33;;;;;;;;;;5071711;28;20205;-70
2022/01/31 10:16:26;;;;;;;59.50;3.50;;;;;;;;;;5071932;28;20185;-70
2022/01/31 10:19:00;;;;;;;61.20;3.17;;;;;;;;;;5071525;28;20205;-71
2022/01/31 10:21:27;;;;;;;58.88;3.47;;;;;;;;;;5071911;28;20198;-70
2022/01/31 10:23:55;;;;;;;58.80;3.20;;;;;;;;;;5071883;28;20225;-70
2022/01/31 10:26:31;;;;;;;59.53;3.50;;;;;;;;;;5071757;28;20292;-70
2022/01/31 10:29:11;;;;;;;58.25;3.33;;;;;;;;;;5071821;28;20301;-71
2022/01/31 10:31:39;;;;;;;58.38;3.30;;;;;;;;;;5071920;28;20686;-70
2022/01/31 10:34:18;;;;;;;60.38;3.50;;;;;;;;;;5071738;28;20732;-71
2022/01/31 10:36:46;;;;;;;59.10;3.22;;;;;;;;;;5071616;28;20209;-70
2022/01/31 10:43:11;;;;;;;60.00;3.17;;;;;;;;;;5071544;28;20301;-70
2022/01/31 10:51:13;;;;;;;60.90;3.95;;;;;;;;;;5059907;28;20258;-71
2022/01/31 10:53:43;;;;;;;63.55;3.47;;;;;;;;;;5071407;28;20774;-71
2022/01/31 10:56:10;;;;;;;59.15;3.55;;;;;;;;;;5071675;28;20266;-71
2022/01/31 10:58:53;;;;;;;60.60;3.65;;;;;;;;;;5071534;28;20406;-71
2022/01/31 11:01:20;;;;;;;59.30;3.38;;;;;;;;;;5071447;28;20673;-70
2022/01/31 11:03:48;;;;;;;58.45;3.42;;;;;;;;;;5071311;28;20232;-70
2022/01/31 11:06:15;;;;;;;59.85;3.42;;;;;;;;;;5071837;28;20580;-71
2022/01/31 11:08:42;;;;;;;59.38;3.22;;;;;;;;;;5071403;28;20212;-71
2022/01/31 11:11:09;;;;;;;59.50;3.10;;;;;;;;;;5071526;28;20593;-70
2022/01/31 11:13:37;;;;;;;59.58;3.53;;;;;;;;;;5071339;28;20233;-72
2022/01/31 11:16:07;;;;;;;59.55;3.50;;;;;;;;;;5071634;28;20288;-71
2022/01/31 11:18:35;;;;;;;60.67;3.97;;;;;;;;;;5071032;28;20237;-71
2022/01/31 11:21:03;;;;;;;58.70;3.10;;;;;;;;;;5071369;28;20681;-71
2022/01/31 11:23:33;;;;;;;58.72;3.33;;;;;;;;;;5071360;28;20660;-71
2022/01/31 11:26:01;;;;;;;59.75;3.50;;;;;;;;;;5071581;28;20581;-74
2022/01/31 11:28:29;;;;;;;60.05;3.15;;;;;;;;;;5071126;28;20206;-71
2022/01/31 11:30:56;;;;;;;60.90;3.30;;;;;;;;;;5073505;28;20209;-72
2022/01/31 11:33:25;;;;;;;60.67;3.30;;;;;;;;;;5075141;28;20225;-71
2022/01/31 11:35:54;;;;;;;64.45;3.83;;;;;;;;;;5074866;28;20678;-71
2022/01/31 11:38:21;;;;;;;59.63;3.08;;;;;;;;;;5074740;28;20267;-71
2022/01/31 11:40:49;;;;;;;60.25;3.20;;;;;;;;;;5074887;28;20704;-71
2022/01/31 11:43:17;;;;;;;60.65;3.38;;;;;;;;;;5074683;28;20316;-71
2022/01/31 11:45:45;;;;;;;58.90;3.08;;;;;;;;;;5074779;28;20296;-71
2022/01/31 11:48:20;;;;;;;64.25;3.33;;;;;;;;;;5074632;28;20233;-71
2022/01/31 11:50:49;;;;;;;59.28;2.72;;;;;;;;;;5075021;28;20211;-72
2022/01/31 11:53:17;;;;;;;60.47;3.38;;;;;;;;;;5074603;28;20236;-71
2022/01/31 11:55:44;;;;;;;59.30;3.80;;;;;;;;;;5074683;28;20206;-71
2022/01/31 11:58:15;;;;;;;59.70;3.30;;;;;;;;;;5074293;28;20241;-72
2022/01/31 12:00:42;;;;;;;58.30;3.25;;;;;;;;;;5074551;28;20701;-70
2022/01/31 12:03:10;;;;;;;60.60;3.15;;;;;;;;;;5074689;28;20312;-72
2022/01/31 12:05:38;;;;;;;62.03;3.00;;;;;;;;;;5074886;28;20646;-72
2022/01/31 12:08:09;;;;;;;59.20;3.05;;;;;;;;;;5074732;28;20212;-71
2022/01/31 12:10:38;;;;;;;58.58;3.42;;;;;;;;;;5074358;28;20281;-71
2022/01/31 12:13:16;;;;;;;59.60;3.35;;;;;;;;;;5073992;28;20698;-72
2022/01/31 12:16:01;;;;;;;58.25;3.10;;;;;;;;;;5074514;28;20217;-71
2022/01/31 12:18:38;;;;;;;58.67;3.10;;;;;;;;;;5074157;28;20243;-71
2022/01/31 12:23:54;;;;;;;58.80;3.40;;;;;;;;;;5074116;28;20332;-71
2022/01/31 12:26:38;;;;;;;58.70;3.20;;;;;;;;;;5074494;28;20205;-71
2022/01/31 12:29:08;;;;;;;55.97;3.10;;;;;;;;;;5073825;28;20245;-71
2022/01/31 12:31:38;;;;;;;59.13;3.67;;;;;;;;;;5074014;28;20243;-71
2022/01/31 12:34:10;;;;;;;60.67;3.35;;;;;;;;;;5074120;28;20226;-71
2022/01/31 12:36:52;;;;;;;59.15;3.50;;;;;;;;;;5074025;28;20595;-71
2022/01/31 12:39:42;;;;;;;61.75;3.50;;;;;;;;;;5073644;28;20263;-72
2022/01/31 12:42:32;;;;;;;59.00;3.33;;;;;;;;;;5069681;28;20259;-71
2022/01/31 12:45:01;;;;;;;60.47;3.10;;;;;;;;;;5073939;28;20201;-71
2022/01/31 12:47:28;;;;;;;63.00;3.72;;;;;;;;;;5073377;28;20765;-71
2022/01/31 12:50:10;;;;;;;64.50;3.85;;;;;;;;;;5073658;28;20214;-71
2022/01/31 12:52:37;;;;;;;60.30;3.05;;;;;;;;;;5073322;28;20497;-70
2022/01/31 12:55:10;;;;;;;60.15;3.33;;;;;;;;;;5073601;28;20205;-71
2022/01/31 12:57:47;;;;;;;58.40;3.10;;;;;;;;;;5073427;28;20637;-70
2022/01/31 13:00:17;;;;;;;58.78;2.97;;;;;;;;;;5073704;28;20589;-70
2022/01/31 13:02:50;;;;;;;62.00;3.13;;;;;;;;;;5073207;28;20728;-69
2022/01/31 13:05:17;;;;;;;59.38;3.50;;;;;;;;;;5073822;28;20205;-70
2022/01/31 13:07:44;;;;;;;59.00;3.13;;;;;;;;;;5073622;28;20214;-70
2022/01/31 13:10:12;;;;;;;59.67;3.13;;;;;;;;;;5073759;28;20580;-71
2022/01/31 13:12:40;;;;;;;64.05;3.60;;;;;;;;;;5073430;28;20236;-70
2022/01/31 13:15:07;;;;;;;59.08;3.70;;;;;;;;;;5077360;28;20212;-70
2022/01/31 13:17:40;;;;;;;60.83;3.30;;;;;;;;;;5092643;28;20240;-70
2022/01/31 13:20:07;;;;;;;58.58;3.30;;;;;;;;;;5093430;28;20232;-71
2022/01/31 13:22:37;;;;;;;63.22;3.38;;;;;;;;;;5088290;28;20225;-69
2022/01/31 13:25:06;;;;;;;58.90;3.15;;;;;;;;;;5089884;28;20233;-71
2022/01/31 13:27:34;;;;;;;59.67;3.40;;;;;;;;;;5092046;28;20240;-70
2022/01/31 13:30:01;;;;;;;63.75;3.80;;;;;;;;;;5094448;28;20296;-70
2022/01/31 13:32:30;;;;;;;60.60;3.35;;;;;;;;;;5086873;28;20688;-73
2022/01/31 13:35:00;;;;;;;62.10;3.90;;;;;;;;;;5072797;28;20296;-71
2022/01/31 13:37:35;;;;;;;60.25;3.28;;;;;;;;;;5072556;28;20233;-71
2022/01/31 13:40:03;;;;;;;61.67;3.78;;;;;;;;;;5072751;28;20231;-71
2022/01/31 13:42:35;;;;;;;64.25;3.72;;;;;;;;;;5072866;28;20788;-71
2022/01/31 13:45:02;;;;;;;64.72;3.70;;;;;;;;;;5072498;28;20205;-71
2022/01/31 13:47:36;;;;;;;59.95;3.58;;;;;;;;;;5072230;28;20296;-71
2022/01/31 13:50:14;;;;;;;59.30;3.50;;;;;;;;;;5072323;28;20205;-71
2022/01/31 13:52:50;;;;;;;58.13;2.90;;;;;;;;;;5071601;28;20261;-71
2022/01/31 13:55:17;;;;;;;60.55;3.30;;;;;;;;;;5072347;28;20216;-71
2022/01/31 13:57:45;;;;;;;59.45;3.85;;;;;;;;;;5072212;28;20304;-71
2022/01/31 14:00:13;;;;;;;60.28;3.40;;;;;;;;;;5072561;28;20244;-71
2022/01/31 14:02:40;;;;;;;60.17;2.60;;;;;;;;;;5072332;28;20713;-71
2022/01/31 14:05:20;;;;;;;58.67;2.90;;;;;;;;;;5072448;28;20213;-72
2022/01/31 14:07:47;;;;;;;61.72;3.20;;;;;;;;;;5072161;28;20237;-72
2022/01/31 14:10:24;;;;;;;63.35;3.70;;;;;;;;;;5072404;28;20670;-71
2022/01/31 14:12:56;;;;;;;61.70;3.28;;;;;;;;;;5072017;28;20604;-71
2022/01/31 14:15:24;;;;;;;58.22;3.08;;;;;;;;;;5072221;28;20221;-71
2022/01/31 14:17:51;;;;;;;58.80;3.30;;;;;;;;;;5071826;28;20209;-71
2022/01/31 14:20:20;;;;;;;60.22;3.30;;;;;;;;;;5072212;28;20301;-72
2022/01/31 14:22:57;;;;;;;58.38;2.92;;;;;;;;;;5072152;28;20232;-72
2022/01/31 14:25:24;;;;;;;60.13;3.60;;;;;;;;;;5071856;28;20678;-71
2022/01/31 14:27:51;;;;;;;58.00;2.95;;;;;;;;;;5071782;28;20216;-71
2022/01/31 14:30:21;;;;;;;58.78;3.03;;;;;;;;;;5071816;28;20213;-71
2022/01/31 14:32:57;;;;;;;62.00;3.50;;;;;;;;;;5072023;28;20240;-70
2022/01/31 14:35:26;;;;;;;61.92;3.75;;;;;;;;;;5071753;28;20756;-70
2022/01/31 14:37:53;;;;;;;63.20;3.80;;;;;;;;;;5071520;28;20245;-71
2022/01/31 14:40:40;;;;;;;61.58;2.80;;;;;;;;;;5071682;28;20292;-70
2022/01/31 14:43:17;;;;;;;59.08;2.75;;;;;;;;;;5071940;28;20307;-71
2022/01/31 14:48:32;;;;;;;61.95;3.70;;;;;;;;;;5071493;28;20273;-71
2022/01/31 14:51:00;;;;;;;60.65;3.60;;;;;;;;;;5071632;28;20209;-71
2022/01/31 14:53:27;;;;;;;62.20;3.95;;;;;;;;;;5071763;28;20247;-71
2022/01/31 14:55:58;;;;;;;61.63;3.40;;;;;;;;;;5071762;28;20201;-72
2022/01/31 14:58:26;;;;;;;62.90;3.95;;;;;;;;;;5071670;28;20214;-71
2022/01/31 15:00:53;;;;;;;61.95;3.15;;;;;;;;;;5072112;28;20201;-71
2022/01/31 15:03:23;;;;;;;59.17;3.67;;;;;;;;;;5071434;28;20733;-72
2022/01/31 15:05:52;;;;;;;60.35;3.67;;;;;;;;;;5075695;28;20884;-72